createdAt,value
2022-08-16T00:02:21.877Z,98917.88
2022-08-16T00:06:26.888Z,98921.72
2022-08-16T00:10:33.303Z,98927.34
2022-08-16T00:14:36.397Z,98927.75
2022-08-16T00:18:39.680Z,98924.69
2022-08-16T00:22:45.422Z,98929.53
2022-08-16T00:26:50.254Z,98932.56
2022-08-16T00:30:53.581Z,98941.88
2022-08-16T00:34:56.737Z,98931.13
2022-08-16T00:39:05.504Z,98933.06
2022-08-16T00:43:19.104Z,98930.53
2022-08-16T00:47:24.749Z,98933.44
2022-08-16T00:51:29.540Z,98935.59
2022-08-16T00:55:37.717Z,98931.34
2022-08-16T00:59:42.493Z,98932.34
2022-08-16T01:04:05.337Z,98945.22
2022-08-16T01:08:35.813Z,98933.16
2022-08-16T01:12:36.147Z,98931.50
2022-08-16T01:16:44.380Z,98940.75
2022-08-16T01:20:54.593Z,98966.22
2022-08-16T01:25:04.208Z,98994.06
2022-08-16T01:29:12.154Z,98988.13
2022-08-16T01:33:15.903Z,98997.34
2022-08-16T01:37:23.089Z,99008.84
2022-08-16T01:41:31.422Z,99015.22
2022-08-16T01:45:40.565Z,99021.53
2022-08-16T01:50:40.908Z,99020.00
2022-08-16T01:54:09.615Z,99013.13
2022-08-16T01:58:27.011Z,99029.41
2022-08-16T02:02:30.607Z,99023.34
2022-08-16T02:06:37.929Z,99019.78
2022-08-16T02:10:41.770Z,99024.56
2022-08-16T02:14:46.935Z,99021.13
2022-08-16T02:18:50.380Z,99025.16
2022-08-16T02:22:55.155Z,99041.44
2022-08-16T02:26:58.732Z,99030.13
2022-08-16T02:31:06.805Z,99028.50
2022-08-16T02:35:28.488Z,99018.25
2022-08-16T02:39:32.029Z,99019.38
2022-08-16T02:43:37.930Z,99020.72
2022-08-16T02:48:00.644Z,99030.88
2022-08-16T02:52:09.169Z,99023.97
2022-08-16T02:56:14.903Z,99019.63
2022-08-16T03:00:34.677Z,99020.69
2022-08-16T03:04:52.115Z,99017.25
2022-08-16T03:08:57.916Z,99026.41
2022-08-16T03:13:04.267Z,99021.03
2022-08-16T03:17:17.655Z,99020.19
2022-08-16T03:21:25.289Z,99023.91
2022-08-16T03:25:44.750Z,99030.38
2022-08-16T03:29:54.714Z,99026.94
2022-08-16T03:33:59.604Z,99041.28
2022-08-16T03:38:32.839Z,99035.25
2022-08-16T03:42:31.529Z,99039.94
2022-08-16T03:46:48.215Z,99030.34
2022-08-16T03:51:05.071Z,99030.53
2022-08-16T03:55:15.298Z,99030.53
2022-08-16T03:59:18.789Z,99032.25
2022-08-16T04:03:25.900Z,99038.56
2022-08-16T04:07:33.799Z,99045.69
2022-08-16T04:11:39.723Z,99046.53
2022-08-16T04:15:43.390Z,99042.88
2022-08-16T04:20:11.086Z,99038.22
2022-08-16T04:24:31.897Z,99048.84
2022-08-16T04:28:53.193Z,99043.97
2022-08-16T04:33:00.898Z,99048.22
2022-08-16T04:37:09.959Z,99050.66
2022-08-16T04:41:18.222Z,99053.06
2022-08-16T04:45:36.185Z,99049.44
2022-08-16T04:49:46.962Z,99063.44
2022-08-16T04:53:52.674Z,99054.25
2022-08-16T04:57:58.571Z,99057.44
2022-08-16T05:02:04.450Z,99059.06
2022-08-16T05:06:41.989Z,99068.69
2022-08-16T05:10:58.943Z,99075.50
2022-08-16T05:15:06.420Z,99078.78
2022-08-16T05:19:16.520Z,99081.16
2022-08-16T05:23:40.008Z,99081.66
2022-08-16T05:27:44.501Z,99083.88
2022-08-16T05:31:53.295Z,99080.81
2022-08-16T05:35:59.628Z,99083.13
2022-08-16T05:40:13.205Z,99079.13
2022-08-16T05:44:23.958Z,99077.78
2022-08-16T05:48:29.607Z,99066.56
2022-08-16T05:52:39.467Z,99069.44
2022-08-16T05:56:49.041Z,99058.56
2022-08-16T06:00:53.609Z,99065.34
2022-08-16T06:04:59.882Z,99065.06
2022-08-16T06:09:07.153Z,99084.91
2022-08-16T06:13:12.365Z,99092.66
2022-08-16T06:17:21.690Z,99084.41
2022-08-16T06:21:27.187Z,99082.91
2022-08-16T06:25:41.579Z,99083.94
2022-08-16T06:29:50.298Z,99096.22
2022-08-16T06:33:56.648Z,99097.13
2022-08-16T06:38:02.426Z,99092.22
2022-08-16T06:42:07.992Z,99106.06
2022-08-16T06:46:31.859Z,99098.75
2022-08-16T06:50:40.219Z,99102.84
2022-08-16T06:54:46.434Z,99113.88
2022-08-16T06:58:56.352Z,99122.94
2022-08-16T07:03:27.730Z,99117.28
2022-08-16T07:07:34.468Z,99108.41
2022-08-16T07:11:47.521Z,99116.16
2022-08-16T07:16:02.836Z,99112.13
2022-08-16T07:20:30.158Z,99107.88
2022-08-16T07:24:33.856Z,99117.13
2022-08-16T07:28:49.558Z,99120.66
2022-08-16T07:32:55.650Z,99117.97
2022-08-16T07:36:59.652Z,99116.34
2022-08-16T07:41:16.056Z,99121.03
2022-08-16T07:45:23.634Z,99132.13
2022-08-16T07:49:32.564Z,99128.59
2022-08-16T07:53:43.650Z,99136.00
2022-08-16T07:58:00.769Z,99132.22
2022-08-16T08:02:12.087Z,99131.28
2022-08-16T08:06:19.251Z,99121.94
2022-08-16T08:10:29.492Z,99135.25
2022-08-16T08:14:37.018Z,99136.00
2022-08-16T08:18:41.683Z,99135.88
2022-08-16T08:23:00.573Z,99139.41
2022-08-16T08:27:11.076Z,99140.41
2022-08-16T08:31:16.223Z,99143.34
2022-08-16T08:35:24.343Z,99144.63
2022-08-16T08:39:32.134Z,99138.47
2022-08-16T08:43:41.499Z,99145.59
2022-08-16T08:47:54.207Z,99150.25
2022-08-16T08:52:07.978Z,99152.94
2022-08-16T08:56:22.922Z,99154.28
2022-08-16T09:00:30.607Z,99153.66
2022-08-16T09:04:39.699Z,99151.44
2022-08-16T09:08:47.359Z,99139.09
2022-08-16T09:12:53.573Z,99151.41
2022-08-16T09:17:02.877Z,99144.22
2022-08-16T09:21:09.434Z,99142.41
2022-08-16T09:25:14.609Z,99150.50
2022-08-16T09:29:23.953Z,99142.72
2022-08-16T09:33:44.791Z,99124.56
2022-08-16T09:38:00.857Z,99128.47
2022-08-16T09:42:05.055Z,99134.34
2022-08-16T09:46:48.053Z,99127.66
2022-08-16T09:50:39.744Z,99131.41
2022-08-16T09:54:44.295Z,99132.72
2022-08-16T09:59:03.466Z,99132.91
2022-08-16T10:03:10.050Z,99121.53
2022-08-16T10:07:15.882Z,99124.09
2022-08-16T10:11:49.880Z,99126.38
2022-08-16T10:15:59.950Z,99125.63
2022-08-16T10:20:05.570Z,99125.78
2022-08-16T10:24:10.164Z,99122.25
2022-08-16T10:28:28.854Z,99120.69
2022-08-16T10:32:33.721Z,99122.03
2022-08-16T10:36:40.387Z,99114.31
2022-08-16T10:40:45.510Z,99123.06
2022-08-16T10:44:53.750Z,99118.66
2022-08-16T10:48:58.004Z,99124.66
2022-08-16T10:53:07.575Z,99124.09
2022-08-16T10:57:12.100Z,99128.69
2022-08-16T11:01:43.839Z,99128.97
2022-08-16T11:05:59.462Z,99120.69
2022-08-16T11:10:20.616Z,99121.53
2022-08-16T11:14:24.571Z,99127.59
2022-08-16T11:18:36.755Z,99122.44
2022-08-16T11:22:53.755Z,99127.59
2022-08-16T11:31:21.946Z,99130.00
2022-08-16T11:39:50.475Z,99112.63
2022-08-16T11:44:05.511Z,99115.50
2022-08-16T11:48:09.535Z,99120.31
2022-08-16T11:52:12.972Z,99118.47
2022-08-16T11:56:53.278Z,99111.84
2022-08-16T12:00:51.971Z,99103.50
2022-08-16T12:04:57.056Z,99100.88
2022-08-16T12:09:02.048Z,99110.88
2022-08-16T12:13:06.075Z,99100.66
2022-08-16T12:17:15.347Z,99101.69
2022-08-16T12:21:19.710Z,99102.09
2022-08-16T12:25:25.947Z,99093.59
2022-08-16T12:29:29.830Z,99090.00
2022-08-16T12:33:44.637Z,99089.38
2022-08-16T12:37:49.565Z,99086.38
2022-08-16T12:42:00.181Z,99088.94
2022-08-16T12:46:04.869Z,99088.78
2022-08-16T12:50:14.913Z,99083.25
2022-08-16T12:54:18.500Z,99089.59
2022-08-16T12:58:49.228Z,99076.66
2022-08-16T13:02:46.345Z,99070.56
2022-08-16T13:06:52.408Z,99075.09
2022-08-16T13:10:56.358Z,99082.34
2022-08-16T13:14:59.458Z,99075.88
2022-08-16T13:19:02.659Z,99073.28
2022-08-16T13:23:12.635Z,99064.56
2022-08-16T13:27:20.732Z,99069.16
2022-08-16T13:31:38.374Z,99070.00
2022-08-16T13:35:45.201Z,99062.06
2022-08-16T13:39:51.950Z,99058.03
2022-08-16T13:43:57.925Z,99056.22
2022-08-16T13:48:02.735Z,99067.47
2022-08-16T13:52:07.701Z,99058.16
2022-08-16T13:56:24.763Z,99065.81
2022-08-16T14:00:28.459Z,99060.69
2022-08-16T14:04:35.239Z,99058.72
2022-08-16T14:08:42.246Z,99051.16
2022-08-16T14:12:47.122Z,99059.00
2022-08-16T14:16:51.475Z,99061.59
2022-08-16T14:20:56.483Z,99058.00
2022-08-16T14:25:01.196Z,99050.28
2022-08-16T14:29:08.172Z,99040.09
2022-08-16T14:33:12.470Z,99036.22
2022-08-16T14:37:15.930Z,99040.63
2022-08-16T14:41:20.014Z,99041.66
2022-08-16T14:45:27.265Z,99033.78
2022-08-16T14:49:31.814Z,99028.50
2022-08-16T14:53:36.131Z,99026.78
2022-08-16T14:57:41.264Z,99024.91
2022-08-16T15:01:59.705Z,99024.06
2022-08-16T15:06:03.695Z,99038.13
2022-08-16T15:10:08.526Z,99030.88
2022-08-16T15:14:25.017Z,99033.03
2022-08-16T15:18:31.712Z,99030.75
2022-08-16T15:22:37.664Z,99030.06
2022-08-16T15:26:45.166Z,99020.16
2022-08-16T15:30:59.611Z,99026.63
2022-08-16T15:35:08.773Z,99031.34
2022-08-16T15:39:29.792Z,99019.38
2022-08-16T15:43:40.020Z,99028.31
2022-08-16T15:47:55.621Z,99032.31
2022-08-16T15:52:01.487Z,99018.16
2022-08-16T15:56:06.728Z,99019.47
2022-08-16T16:00:14.768Z,99022.34
2022-08-16T16:04:22.612Z,99018.47
2022-08-16T16:08:28.964Z,99016.03
2022-08-16T16:12:53.427Z,99016.50
2022-08-16T16:16:56.305Z,99011.66
2022-08-16T16:21:02.312Z,99012.97
2022-08-16T16:25:07.721Z,99015.28
2022-08-16T16:29:15.157Z,99011.81
2022-08-16T16:33:25.709Z,99018.56
2022-08-16T16:37:31.190Z,99018.16
2022-08-16T16:41:36.773Z,99019.63
2022-08-16T16:45:40.659Z,99026.81
2022-08-16T16:49:43.772Z,99037.22
2022-08-16T16:53:55.891Z,99029.63
2022-08-16T16:58:35.536Z,99031.22
2022-08-16T17:02:49.313Z,99027.38
2022-08-16T17:06:57.259Z,99031.41
2022-08-16T17:11:00.820Z,99031.97
2022-08-16T17:15:07.571Z,99035.97
2022-08-16T17:19:16.579Z,99036.53
2022-08-16T17:23:58.780Z,99046.00
2022-08-16T17:27:51.087Z,99042.97
2022-08-16T17:31:55.968Z,99047.94
2022-08-16T17:36:36.426Z,99055.94
2022-08-16T17:40:55.020Z,99055.50
2022-08-16T17:45:02.670Z,99057.91
2022-08-16T17:49:07.662Z,99073.19
2022-08-16T17:53:12.039Z,99072.03
2022-08-16T17:57:15.321Z,99073.47
2022-08-16T18:01:25.150Z,99075.00
2022-08-16T18:05:30.698Z,99085.44
2022-08-16T18:09:33.784Z,99086.69
2022-08-16T18:13:39.918Z,99092.38
2022-08-16T18:17:43.919Z,99095.75
2022-08-16T18:22:06.089Z,99087.31
2022-08-16T18:26:09.607Z,99094.25
2022-08-16T18:30:17.533Z,99102.97
2022-08-16T18:34:21.720Z,99105.47
2022-08-16T18:38:26.651Z,99102.69
2022-08-16T18:42:29.963Z,99108.78
2022-08-16T18:46:33.330Z,99105.84
2022-08-16T18:50:58.906Z,99110.22
2022-08-16T18:55:14.450Z,99110.28
2022-08-16T18:59:18.129Z,99104.53
2022-08-16T19:03:25.731Z,99105.91
2022-08-16T19:07:30.631Z,99107.28
2022-08-16T19:11:35.979Z,99112.22
2022-08-16T19:15:41.136Z,99118.19
2022-08-16T19:19:44.431Z,99123.22
2022-08-16T19:23:47.505Z,99118.16
2022-08-16T19:27:53.083Z,99132.25
2022-08-16T19:31:56.139Z,99127.59
2022-08-16T19:35:59.780Z,99137.19
2022-08-16T19:40:03.266Z,99132.53
2022-08-16T19:44:08.505Z,99140.41
2022-08-16T19:48:11.818Z,99146.59
2022-08-16T19:52:18.676Z,99146.44
2022-08-16T19:56:25.739Z,99154.22
2022-08-16T20:00:35.399Z,99159.38
2022-08-16T20:04:39.184Z,99159.34
2022-08-16T20:08:42.338Z,99160.56
2022-08-16T20:13:02.589Z,99162.78
2022-08-16T20:17:08.164Z,99158.84
2022-08-16T20:21:11.438Z,99169.16
2022-08-16T20:25:18.689Z,99161.50
2022-08-16T20:29:22.475Z,99160.47
2022-08-16T20:33:27.658Z,99173.63
2022-08-16T20:37:32.595Z,99171.25
2022-08-16T20:41:36.150Z,99170.53
2022-08-16T20:45:41.047Z,99162.66
2022-08-16T20:49:45.725Z,99167.53
2022-08-16T20:53:48.968Z,99177.97
2022-08-16T20:57:52.242Z,99174.75
2022-08-16T21:01:55.512Z,99182.44
2022-08-16T21:06:01.976Z,99179.47
2022-08-16T21:10:07.553Z,99190.81
2022-08-16T21:14:11.706Z,99189.44
2022-08-16T21:18:15.004Z,99194.31
2022-08-16T21:22:21.984Z,99193.81
2022-08-16T21:26:25.108Z,99182.69
2022-08-16T21:30:32.347Z,99181.31
2022-08-16T21:34:35.808Z,99183.50
2022-08-16T21:38:41.105Z,99183.69
2022-08-16T21:42:45.493Z,99185.78
2022-08-16T21:46:49.548Z,99199.50
2022-08-16T21:50:52.851Z,99188.28
2022-08-16T21:54:58.337Z,99194.22
2022-08-16T21:59:01.503Z,99190.22
2022-08-16T22:03:06.987Z,99196.94
2022-08-16T22:07:10.035Z,99199.94
2022-08-16T22:11:14.706Z,99193.91
2022-08-16T22:15:25.638Z,99194.13
2022-08-16T22:19:29.301Z,99197.16
2022-08-16T22:23:34.457Z,99200.28
2022-08-16T22:27:38.964Z,99201.47
2022-08-16T22:31:43.276Z,99200.16
2022-08-16T22:35:48.544Z,99193.38
2022-08-16T22:39:52.145Z,99196.41
2022-08-16T22:43:56.788Z,99202.22
2022-08-16T22:48:00.430Z,99196.28
2022-08-16T22:52:07.287Z,99204.00
2022-08-16T22:56:10.456Z,99200.97
2022-08-16T23:00:18.572Z,99194.16
2022-08-16T23:04:21.869Z,99198.13
2022-08-16T23:08:32.248Z,99197.69
2022-08-16T23:12:48.863Z,99201.97
2022-08-16T23:16:53.425Z,99192.47
2022-08-16T23:20:58.395Z,99188.38
2022-08-16T23:25:01.866Z,99194.16
2022-08-16T23:29:05.673Z,99184.47
2022-08-16T23:33:22.424Z,99197.94
2022-08-16T23:37:25.505Z,99189.38
2022-08-16T23:41:30.721Z,99196.97
2022-08-16T23:45:36.985Z,99191.00
2022-08-16T23:49:59.359Z,99190.34
2022-08-16T23:54:08.315Z,99199.81
2022-08-16T23:58:13.067Z,99200.84
